sensor_id;sensor_type;location;lat;lon;timestamp;P1;durP1;ratioP1;P2;durP2;ratioP2
6463;SDS011;3265;42.694;23.282;2022-08-03T00:00:12;6.10;;;3.03;;
6463;SDS011;3265;42.694;23.282;2022-08-03T00:02:40;4.60;;;3.13;;
6463;SDS011;3265;42.694;23.282;2022-08-03T00:05:07;5.32;;;3.08;;
6463;SDS011;3265;42.694;23.282;2022-08-03T00:07:35;5.95;;;2.50;;
6463;SDS011;3265;42.694;23.282;2022-08-03T00:10:03;3.42;;;2.00;;
6463;SDS011;3265;42.694;23.282;2022-08-03T00:12:30;4.82;;;2.15;;
6463;SDS011;3265;42.694;23.282;2022-08-03T00:14:57;4.90;;;2.97;;
6463;SDS011;3265;42.694;23.282;2022-08-03T00:17:23;6.28;;;2.78;;
6463;SDS011;3265;42.694;23.282;2022-08-03T00:19:50;5.13;;;2.97;;
6463;SDS011;3265;42.694;23.282;2022-08-03T00:22:17;4.07;;;2.90;;
6463;SDS011;3265;42.694;23.282;2022-08-03T00:24:45;3.95;;;3.00;;
6463;SDS011;3265;42.694;23.282;2022-08-03T00:27:12;7.45;;;2.90;;
6463;SDS011;3265;42.694;23.282;2022-08-03T00:29:39;6.10;;;3.17;;
6463;SDS011;3265;42.694;23.282;2022-08-03T00:32:06;5.57;;;2.92;;
6463;SDS011;3265;42.694;23.282;2022-08-03T00:34:32;4.18;;;2.92;;
6463;SDS011;3265;42.694;23.282;2022-08-03T00:36:59;4.45;;;3.08;;
6463;SDS011;3265;42.694;23.282;2022-08-03T00:39:26;6.05;;;2.38;;
6463;SDS011;3265;42.694;23.282;2022-08-03T00:41:54;2.53;;;2.20;;
6463;SDS011;3265;42.694;23.282;2022-08-03T00:44:21;2.33;;;1.90;;
6463;SDS011;3265;42.694;23.282;2022-08-03T00:46:48;4.90;;;2.08;;
6463;SDS011;3265;42.694;23.282;2022-08-03T00:49:15;3.53;;;2.65;;
6463;SDS011;3265;42.694;23.282;2022-08-03T00:51:41;4.28;;;2.50;;
6463;SDS011;3265;42.694;23.282;2022-08-03T00:54:09;5.13;;;2.30;;
6463;SDS011;3265;42.694;23.282;2022-08-03T00:56:36;4.90;;;3.08;;
6463;SDS011;3265;42.694;23.282;2022-08-03T00:59:04;3.72;;;2.25;;
6463;SDS011;3265;42.694;23.282;2022-08-03T01:01:31;6.13;;;2.85;;
6463;SDS011;3265;42.694;23.282;2022-08-03T01:03:58;4.47;;;2.90;;
6463;SDS011;3265;42.694;23.282;2022-08-03T01:06:27;3.17;;;2.55;;
6463;SDS011;3265;42.694;23.282;2022-08-03T01:09:02;2.85;;;2.60;;
6463;SDS011;3265;42.694;23.282;2022-08-03T01:11:36;4.40;;;2.45;;
6463;SDS011;3265;42.694;23.282;2022-08-03T01:14:08;6.38;;;2.45;;
6463;SDS011;3265;42.694;23.282;2022-08-03T01:16:39;3.70;;;2.70;;
6463;SDS011;3265;42.694;23.282;2022-08-03T01:19:18;6.90;;;3.30;;
6463;SDS011;3265;42.694;23.282;2022-08-03T01:22:17;3.40;;;2.60;;
6463;SDS011;3265;42.694;23.282;2022-08-03T01:25:00;3.30;;;2.67;;
6463;SDS011;3265;42.694;23.282;2022-08-03T01:27:36;3.42;;;2.80;;
6463;SDS011;3265;42.694;23.282;2022-08-03T01:30:19;8.63;;;2.70;;
6463;SDS011;3265;42.694;23.282;2022-08-03T01:32:50;6.70;;;3.13;;
6463;SDS011;3265;42.694;23.282;2022-08-03T01:35:25;5.57;;;2.88;;
6463;SDS011;3265;42.694;23.282;2022-08-03T01:37:55;4.68;;;3.00;;
6463;SDS011;3265;42.694;23.282;2022-08-03T01:40:26;4.07;;;2.90;;
6463;SDS011;3265;42.694;23.282;2022-08-03T01:42:56;3.70;;;2.30;;
6463;SDS011;3265;42.694;23.282;2022-08-03T01:45:28;7.43;;;2.75;;
6463;SDS011;3265;42.694;23.282;2022-08-03T01:47:57;6.60;;;2.70;;
6463;SDS011;3265;42.694;23.282;2022-08-03T01:50:26;3.30;;;2.72;;
6463;SDS011;3265;42.694;23.282;2022-08-03T01:52:54;3.40;;;2.60;;
6463;SDS011;3265;42.694;23.282;2022-08-03T01:55:24;4.00;;;2.60;;
6463;SDS011;3265;42.694;23.282;2022-08-03T01:57:52;5.70;;;2.70;;
6463;SDS011;3265;42.694;23.282;2022-08-03T02:00:21;7.00;;;3.00;;
6463;SDS011;3265;42.694;23.282;2022-08-03T02:02:51;4.50;;;2.60;;
6463;SDS011;3265;42.694;23.282;2022-08-03T02:05:20;4.07;;;2.47;;
6463;SDS011;3265;42.694;23.282;2022-08-03T02:07:48;6.50;;;3.00;;
6463;SDS011;3265;42.694;23.282;2022-08-03T02:10:18;3.90;;;2.83;;
6463;SDS011;3265;42.694;23.282;2022-08-03T02:12:46;11.05;;;5.47;;
6463;SDS011;3265;42.694;23.282;2022-08-03T02:15:15;5.13;;;3.20;;
6463;SDS011;3265;42.694;23.282;2022-08-03T02:17:44;5.63;;;3.30;;
6463;SDS011;3265;42.694;23.282;2022-08-03T02:20:14;6.75;;;2.80;;
6463;SDS011;3265;42.694;23.282;2022-08-03T02:22:42;2.85;;;2.50;;
6463;SDS011;3265;42.694;23.282;2022-08-03T02:25:11;3.88;;;2.72;;
6463;SDS011;3265;42.694;23.282;2022-08-03T02:27:41;5.40;;;2.70;;
6463;SDS011;3265;42.694;23.282;2022-08-03T02:30:11;6.93;;;2.97;;
6463;SDS011;3265;42.694;23.282;2022-08-03T02:32:43;5.30;;;2.85;;
6463;SDS011;3265;42.694;23.282;2022-08-03T02:35:18;3.97;;;2.80;;
6463;SDS011;3265;42.694;23.282;2022-08-03T02:37:47;5.30;;;3.00;;
6463;SDS011;3265;42.694;23.282;2022-08-03T02:40:18;6.05;;;2.90;;
6463;SDS011;3265;42.694;23.282;2022-08-03T02:42:48;4.43;;;3.28;;
6463;SDS011;3265;42.694;23.282;2022-08-03T02:45:21;4.20;;;3.28;;
6463;SDS011;3265;42.694;23.282;2022-08-03T02:47:51;7.95;;;3.55;;
6463;SDS011;3265;42.694;23.282;2022-08-03T02:50:23;3.20;;;2.90;;
6463;SDS011;3265;42.694;23.282;2022-08-03T02:52:52;7.75;;;3.08;;
6463;SDS011;3265;42.694;23.282;2022-08-03T02:55:22;5.47;;;3.40;;
6463;SDS011;3265;42.694;23.282;2022-08-03T02:57:51;3.55;;;3.10;;
6463;SDS011;3265;42.694;23.282;2022-08-03T03:00:20;6.75;;;3.50;;
6463;SDS011;3265;42.694;23.282;2022-08-03T03:02:48;11.05;;;4.20;;
6463;SDS011;3265;42.694;23.282;2022-08-03T03:05:17;12.45;;;4.05;;
6463;SDS011;3265;42.694;23.282;2022-08-03T03:07:45;8.45;;;3.80;;
6463;SDS011;3265;42.694;23.282;2022-08-03T03:10:12;8.60;;;3.97;;
6463;SDS011;3265;42.694;23.282;2022-08-03T03:12:39;15.95;;;4.40;;
6463;SDS011;3265;42.694;23.282;2022-08-03T03:15:07;11.88;;;4.47;;
6463;SDS011;3265;42.694;23.282;2022-08-03T03:17:35;9.10;;;3.50;;
6463;SDS011;3265;42.694;23.282;2022-08-03T03:20:03;8.68;;;3.20;;
6463;SDS011;3265;42.694;23.282;2022-08-03T03:22:32;6.28;;;3.22;;
6463;SDS011;3265;42.694;23.282;2022-08-03T03:25:02;4.50;;;2.90;;
6463;SDS011;3265;42.694;23.282;2022-08-03T03:27:31;4.50;;;2.95;;
6463;SDS011;3265;42.694;23.282;2022-08-03T03:29:59;3.78;;;2.90;;
6463;SDS011;3265;42.694;23.282;2022-08-03T03:32:27;7.85;;;3.22;;
6463;SDS011;3265;42.694;23.282;2022-08-03T03:34:54;5.88;;;3.00;;
6463;SDS011;3265;42.694;23.282;2022-08-03T03:37:23;4.20;;;3.28;;
6463;SDS011;3265;42.694;23.282;2022-08-03T03:39:51;4.22;;;3.17;;
6463;SDS011;3265;42.694;23.282;2022-08-03T03:42:20;4.97;;;2.83;;
6463;SDS011;3265;42.694;23.282;2022-08-03T03:44:47;3.63;;;3.03;;
6463;SDS011;3265;42.694;23.282;2022-08-03T03:47:14;8.80;;;3.20;;
6463;SDS011;3265;42.694;23.282;2022-08-03T03:49:40;4.75;;;3.53;;
6463;SDS011;3265;42.694;23.282;2022-08-03T03:52:08;4.97;;;3.60;;
6463;SDS011;3265;42.694;23.282;2022-08-03T03:54:38;6.40;;;3.60;;
6463;SDS011;3265;42.694;23.282;2022-08-03T03:57:06;6.60;;;3.40;;
6463;SDS011;3265;42.694;23.282;2022-08-03T03:59:37;5.22;;;3.42;;
6463;SDS011;3265;42.694;23.282;2022-08-03T04:02:05;7.07;;;3.13;;
6463;SDS011;3265;42.694;23.282;2022-08-03T04:04:33;10.65;;;3.88;;
6463;SDS011;3265;42.694;23.282;2022-08-03T04:07:19;7.95;;;3.40;;
6463;SDS011;3265;42.694;23.282;2022-08-03T04:10:04;8.45;;;3.83;;
6463;SDS011;3265;42.694;23.282;2022-08-03T04:12:55;9.67;;;3.67;;
6463;SDS011;3265;42.694;23.282;2022-08-03T04:15:26;7.50;;;3.97;;
6463;SDS011;3265;42.694;23.282;2022-08-03T04:17:54;10.10;;;3.97;;
6463;SDS011;3265;42.694;23.282;2022-08-03T04:20:25;6.43;;;3.72;;
6463;SDS011;3265;42.694;23.282;2022-08-03T04:22:55;5.60;;;4.05;;
6463;SDS011;3265;42.694;23.282;2022-08-03T04:25:25;11.80;;;4.10;;
6463;SDS011;3265;42.694;23.282;2022-08-03T04:27:55;13.90;;;5.20;;
6463;SDS011;3265;42.694;23.282;2022-08-03T04:30:27;18.55;;;5.80;;
6463;SDS011;3265;42.694;23.282;2022-08-03T04:32:55;17.10;;;6.90;;
6463;SDS011;3265;42.694;23.282;2022-08-03T04:35:23;21.65;;;7.38;;
6463;SDS011;3265;42.694;23.282;2022-08-03T04:37:54;13.88;;;5.30;;
6463;SDS011;3265;42.694;23.282;2022-08-03T04:40:26;11.00;;;5.07;;
6463;SDS011;3265;42.694;23.282;2022-08-03T04:42:56;9.50;;;4.70;;
6463;SDS011;3265;42.694;23.282;2022-08-03T04:45:24;9.02;;;4.57;;
6463;SDS011;3265;42.694;23.282;2022-08-03T04:47:54;7.63;;;4.00;;
6463;SDS011;3265;42.694;23.282;2022-08-03T04:50:22;5.53;;;4.20;;
6463;SDS011;3265;42.694;23.282;2022-08-03T04:52:51;7.93;;;4.20;;
6463;SDS011;3265;42.694;23.282;2022-08-03T04:55:24;6.35;;;4.00;;
6463;SDS011;3265;42.694;23.282;2022-08-03T04:57:52;6.70;;;3.80;;
6463;SDS011;3265;42.694;23.282;2022-08-03T05:00:19;6.57;;;4.15;;
6463;SDS011;3265;42.694;23.282;2022-08-03T05:02:48;6.88;;;4.57;;
6463;SDS011;3265;42.694;23.282;2022-08-03T05:05:19;10.77;;;4.80;;
6463;SDS011;3265;42.694;23.282;2022-08-03T05:07:46;9.93;;;4.50;;
6463;SDS011;3265;42.694;23.282;2022-08-03T05:10:14;11.02;;;4.80;;
6463;SDS011;3265;42.694;23.282;2022-08-03T05:12:41;7.85;;;4.50;;
6463;SDS011;3265;42.694;23.282;2022-08-03T05:15:09;8.63;;;4.32;;
6463;SDS011;3265;42.694;23.282;2022-08-03T05:17:36;11.20;;;4.45;;
6463;SDS011;3265;42.694;23.282;2022-08-03T05:20:05;6.93;;;4.47;;
6463;SDS011;3265;42.694;23.282;2022-08-03T05:22:32;7.93;;;4.50;;
6463;SDS011;3265;42.694;23.282;2022-08-03T05:24:59;7.50;;;4.30;;
6463;SDS011;3265;42.694;23.282;2022-08-03T05:27:27;8.55;;;4.50;;
6463;SDS011;3265;42.694;23.282;2022-08-03T05:29:53;10.05;;;4.63;;
6463;SDS011;3265;42.694;23.282;2022-08-03T05:32:20;8.40;;;4.10;;
6463;SDS011;3265;42.694;23.282;2022-08-03T05:34:47;6.47;;;4.35;;
6463;SDS011;3265;42.694;23.282;2022-08-03T05:37:15;7.45;;;4.43;;
6463;SDS011;3265;42.694;23.282;2022-08-03T05:39:42;7.55;;;4.30;;
6463;SDS011;3265;42.694;23.282;2022-08-03T05:42:09;10.82;;;4.45;;
6463;SDS011;3265;42.694;23.282;2022-08-03T05:44:36;11.02;;;4.68;;
6463;SDS011;3265;42.694;23.282;2022-08-03T05:47:03;11.52;;;4.80;;
6463;SDS011;3265;42.694;23.282;2022-08-03T05:49:30;32.38;;;5.43;;
6463;SDS011;3265;42.694;23.282;2022-08-03T05:51:57;77.05;;;8.13;;
6463;SDS011;3265;42.694;23.282;2022-08-03T05:54:25;31.50;;;5.43;;
6463;SDS011;3265;42.694;23.282;2022-08-03T05:56:52;13.23;;;5.25;;
6463;SDS011;3265;42.694;23.282;2022-08-03T05:59:19;15.23;;;5.70;;
6463;SDS011;3265;42.694;23.282;2022-08-03T06:01:45;44.10;;;7.15;;
6463;SDS011;3265;42.694;23.282;2022-08-03T06:04:12;22.63;;;6.95;;
6463;SDS011;3265;42.694;23.282;2022-08-03T06:06:39;9.10;;;5.60;;
6463;SDS011;3265;42.694;23.282;2022-08-03T06:09:07;10.98;;;4.80;;
6463;SDS011;3265;42.694;23.282;2022-08-03T06:11:36;12.77;;;4.55;;
6463;SDS011;3265;42.694;23.282;2022-08-03T06:14:03;8.10;;;4.75;;
6463;SDS011;3265;42.694;23.282;2022-08-03T06:16:29;11.18;;;6.57;;
6463;SDS011;3265;42.694;23.282;2022-08-03T06:18:57;10.73;;;6.25;;
6463;SDS011;3265;42.694;23.282;2022-08-03T06:21:24;11.43;;;6.38;;
6463;SDS011;3265;42.694;23.282;2022-08-03T06:23:51;7.70;;;5.50;;
6463;SDS011;3265;42.694;23.282;2022-08-03T06:26:18;10.23;;;5.15;;
6463;SDS011;3265;42.694;23.282;2022-08-03T06:28:46;8.30;;;5.28;;
6463;SDS011;3265;42.694;23.282;2022-08-03T06:31:13;6.05;;;4.63;;
6463;SDS011;3265;42.694;23.282;2022-08-03T06:33:40;7.75;;;5.55;;
6463;SDS011;3265;42.694;23.282;2022-08-03T06:36:07;8.75;;;4.80;;
6463;SDS011;3265;42.694;23.282;2022-08-03T06:38:34;8.77;;;5.32;;
6463;SDS011;3265;42.694;23.282;2022-08-03T06:41:00;9.13;;;5.53;;
6463;SDS011;3265;42.694;23.282;2022-08-03T06:43:27;12.20;;;5.60;;
6463;SDS011;3265;42.694;23.282;2022-08-03T06:45:55;8.88;;;5.00;;
6463;SDS011;3265;42.694;23.282;2022-08-03T06:48:25;8.55;;;5.30;;
6463;SDS011;3265;42.694;23.282;2022-08-03T06:50:52;5.93;;;4.25;;
6463;SDS011;3265;42.694;23.282;2022-08-03T06:53:19;10.55;;;4.82;;
6463;SDS011;3265;42.694;23.282;2022-08-03T06:55:45;10.20;;;4.97;;
6463;SDS011;3265;42.694;23.282;2022-08-03T06:58:12;7.18;;;4.15;;
6463;SDS011;3265;42.694;23.282;2022-08-03T07:00:39;9.07;;;4.35;;
6463;SDS011;3265;42.694;23.282;2022-08-03T07:03:10;8.43;;;5.20;;
6463;SDS011;3265;42.694;23.282;2022-08-03T07:05:37;11.52;;;4.90;;
6463;SDS011;3265;42.694;23.282;2022-08-03T07:08:05;6.90;;;3.88;;
6463;SDS011;3265;42.694;23.282;2022-08-03T07:10:32;11.00;;;3.90;;
6463;SDS011;3265;42.694;23.282;2022-08-03T07:13:13;9.80;;;4.32;;
6463;SDS011;3265;42.694;23.282;2022-08-03T07:15:40;7.65;;;4.63;;
6463;SDS011;3265;42.694;23.282;2022-08-03T07:18:07;6.10;;;3.92;;
6463;SDS011;3265;42.694;23.282;2022-08-03T07:20:35;9.65;;;4.50;;
6463;SDS011;3265;42.694;23.282;2022-08-03T07:23:02;8.88;;;4.57;;
6463;SDS011;3265;42.694;23.282;2022-08-03T07:25:29;5.22;;;4.30;;
6463;SDS011;3265;42.694;23.282;2022-08-03T07:27:55;7.32;;;4.80;;
6463;SDS011;3265;42.694;23.282;2022-08-03T07:30:22;9.57;;;4.82;;
6463;SDS011;3265;42.694;23.282;2022-08-03T07:32:49;9.38;;;4.72;;
6463;SDS011;3265;42.694;23.282;2022-08-03T07:35:16;11.70;;;6.13;;
6463;SDS011;3265;42.694;23.282;2022-08-03T07:37:45;8.25;;;4.35;;
6463;SDS011;3265;42.694;23.282;2022-08-03T07:40:11;8.65;;;4.05;;
6463;SDS011;3265;42.694;23.282;2022-08-03T07:42:38;6.97;;;4.40;;
6463;SDS011;3265;42.694;23.282;2022-08-03T07:45:06;7.40;;;4.38;;
6463;SDS011;3265;42.694;23.282;2022-08-03T07:47:33;8.07;;;4.10;;
6463;SDS011;3265;42.694;23.282;2022-08-03T07:50:00;5.28;;;3.78;;
6463;SDS011;3265;42.694;23.282;2022-08-03T07:52:27;6.45;;;3.70;;
6463;SDS011;3265;42.694;23.282;2022-08-03T07:55:13;14.15;;;5.30;;
6463;SDS011;3265;42.694;23.282;2022-08-03T07:57:40;10.07;;;4.43;;
6463;SDS011;3265;42.694;23.282;2022-08-03T08:00:12;6.88;;;3.67;;
6463;SDS011;3265;42.694;23.282;2022-08-03T08:02:41;5.97;;;3.58;;
6463;SDS011;3265;42.694;23.282;2022-08-03T08:05:08;6.68;;;4.22;;
6463;SDS011;3265;42.694;23.282;2022-08-03T08:07:36;5.70;;;3.85;;
6463;SDS011;3265;42.694;23.282;2022-08-03T08:10:04;7.53;;;4.50;;
6463;SDS011;3265;42.694;23.282;2022-08-03T08:12:33;5.43;;;4.00;;
6463;SDS011;3265;42.694;23.282;2022-08-03T08:15:01;5.68;;;3.35;;
6463;SDS011;3265;42.694;23.282;2022-08-03T08:17:29;6.38;;;3.88;;
6463;SDS011;3265;42.694;23.282;2022-08-03T08:19:55;11.27;;;3.28;;
6463;SDS011;3265;42.694;23.282;2022-08-03T08:22:22;3.40;;;2.58;;
6463;SDS011;3265;42.694;23.282;2022-08-03T08:24:49;4.45;;;2.95;;
6463;SDS011;3265;42.694;23.282;2022-08-03T08:27:16;6.68;;;3.15;;
6463;SDS011;3265;42.694;23.282;2022-08-03T08:29:44;4.47;;;3.25;;
6463;SDS011;3265;42.694;23.282;2022-08-03T08:32:11;5.43;;;3.88;;
6463;SDS011;3265;42.694;23.282;2022-08-03T08:34:40;5.50;;;3.20;;
6463;SDS011;3265;42.694;23.282;2022-08-03T08:37:07;3.78;;;2.85;;
6463;SDS011;3265;42.694;23.282;2022-08-03T08:39:34;7.03;;;3.15;;
6463;SDS011;3265;42.694;23.282;2022-08-03T08:42:02;7.95;;;3.80;;
6463;SDS011;3265;42.694;23.282;2022-08-03T08:44:29;3.88;;;3.20;;
6463;SDS011;3265;42.694;23.282;2022-08-03T08:46:57;4.35;;;2.95;;
6463;SDS011;3265;42.694;23.282;2022-08-03T08:49:27;5.47;;;2.80;;
6463;SDS011;3265;42.694;23.282;2022-08-03T08:51:55;3.70;;;2.80;;
6463;SDS011;3265;42.694;23.282;2022-08-03T08:54:23;3.83;;;2.65;;
6463;SDS011;3265;42.694;23.282;2022-08-03T08:56:52;3.10;;;2.80;;
6463;SDS011;3265;42.694;23.282;2022-08-03T08:59:23;4.95;;;2.95;;
6463;SDS011;3265;42.694;23.282;2022-08-03T09:01:50;7.22;;;3.15;;
6463;SDS011;3265;42.694;23.282;2022-08-03T09:04:23;5.53;;;2.47;;
6463;SDS011;3265;42.694;23.282;2022-08-03T09:06:51;4.00;;;3.00;;
6463;SDS011;3265;42.694;23.282;2022-08-03T09:09:18;6.55;;;3.85;;
6463;SDS011;3265;42.694;23.282;2022-08-03T09:11:46;4.93;;;3.10;;
6463;SDS011;3265;42.694;23.282;2022-08-03T09:14:13;8.50;;;2.78;;
6463;SDS011;3265;42.694;23.282;2022-08-03T09:16:54;3.70;;;3.00;;
6463;SDS011;3265;42.694;23.282;2022-08-03T09:19:24;5.32;;;3.20;;
6463;SDS011;3265;42.694;23.282;2022-08-03T09:22:06;3.05;;;2.72;;
6463;SDS011;3265;42.694;23.282;2022-08-03T09:24:33;3.03;;;2.67;;
6463;SDS011;3265;42.694;23.282;2022-08-03T09:27:01;4.72;;;2.83;;
6463;SDS011;3265;42.694;23.282;2022-08-03T09:29:30;5.60;;;3.10;;
6463;SDS011;3265;42.694;23.282;2022-08-03T09:31:59;8.18;;;3.30;;
6463;SDS011;3265;42.694;23.282;2022-08-03T09:34:28;4.70;;;2.83;;
6463;SDS011;3265;42.694;23.282;2022-08-03T09:36:55;5.97;;;2.83;;
6463;SDS011;3265;42.694;23.282;2022-08-03T09:39:23;4.22;;;2.40;;
6463;SDS011;3265;42.694;23.282;2022-08-03T09:42:03;3.63;;;2.38;;
6463;SDS011;3265;42.694;23.282;2022-08-03T09:44:32;4.28;;;2.50;;
6463;SDS011;3265;42.694;23.282;2022-08-03T09:47:00;4.90;;;2.50;;
6463;SDS011;3265;42.694;23.282;2022-08-03T09:49:29;4.68;;;2.70;;
6463;SDS011;3265;42.694;23.282;2022-08-03T09:51:55;5.47;;;3.67;;
6463;SDS011;3265;42.694;23.282;2022-08-03T09:54:26;2.47;;;2.28;;
6463;SDS011;3265;42.694;23.282;2022-08-03T09:56:53;3.75;;;2.60;;
6463;SDS011;3265;42.694;23.282;2022-08-03T09:59:24;4.80;;;2.47;;
6463;SDS011;3265;42.694;23.282;2022-08-03T10:01:51;3.92;;;2.55;;
6463;SDS011;3265;42.694;23.282;2022-08-03T10:04:19;4.82;;;2.92;;
6463;SDS011;3265;42.694;23.282;2022-08-03T10:07:02;3.95;;;2.55;;
6463;SDS011;3265;42.694;23.282;2022-08-03T10:09:30;5.15;;;2.63;;
6463;SDS011;3265;42.694;23.282;2022-08-03T10:11:56;3.10;;;2.67;;
6463;SDS011;3265;42.694;23.282;2022-08-03T10:14:32;9.27;;;3.22;;
6463;SDS011;3265;42.694;23.282;2022-08-03T10:17:01;4.80;;;2.80;;
6463;SDS011;3265;42.694;23.282;2022-08-03T10:19:29;3.95;;;2.90;;
6463;SDS011;3265;42.694;23.282;2022-08-03T10:21:57;3.63;;;2.70;;
6463;SDS011;3265;42.694;23.282;2022-08-03T10:24:29;3.70;;;3.17;;
6463;SDS011;3265;42.694;23.282;2022-08-03T10:27:00;3.05;;;2.70;;
6463;SDS011;3265;42.694;23.282;2022-08-03T10:29:30;5.72;;;2.60;;
6463;SDS011;3265;42.694;23.282;2022-08-03T10:32:00;5.10;;;3.20;;
6463;SDS011;3265;42.694;23.282;2022-08-03T10:34:32;4.50;;;2.97;;
6463;SDS011;3265;42.694;23.282;2022-08-03T10:37:06;4.32;;;2.95;;
6463;SDS011;3265;42.694;23.282;2022-08-03T10:39:35;4.88;;;2.70;;
6463;SDS011;3265;42.694;23.282;2022-08-03T10:42:02;6.00;;;2.90;;
6463;SDS011;3265;42.694;23.282;2022-08-03T10:44:32;2.97;;;2.67;;
6463;SDS011;3265;42.694;23.282;2022-08-03T10:47:02;7.22;;;3.00;;
6463;SDS011;3265;42.694;23.282;2022-08-03T10:49:30;3.10;;;2.80;;
6463;SDS011;3265;42.694;23.282;2022-08-03T10:51:58;6.88;;;2.80;;
6463;SDS011;3265;42.694;23.282;2022-08-03T10:57:45;6.40;;;2.97;;
6463;SDS011;3265;42.694;23.282;2022-08-03T11:00:13;3.58;;;2.53;;
6463;SDS011;3265;42.694;23.282;2022-08-03T11:05:31;3.03;;;2.40;;
6463;SDS011;3265;42.694;23.282;2022-08-03T11:08:21;4.72;;;2.58;;
6463;SDS011;3265;42.694;23.282;2022-08-03T11:10:51;3.28;;;2.40;;
6463;SDS011;3265;42.694;23.282;2022-08-03T11:13:20;3.30;;;2.47;;
6463;SDS011;3265;42.694;23.282;2022-08-03T11:15:50;6.25;;;2.63;;
6463;SDS011;3265;42.694;23.282;2022-08-03T11:18:19;3.60;;;2.25;;
6463;SDS011;3265;42.694;23.282;2022-08-03T11:20:47;5.53;;;2.67;;
6463;SDS011;3265;42.694;23.282;2022-08-03T11:23:15;4.55;;;2.80;;
6463;SDS011;3265;42.694;23.282;2022-08-03T11:28:38;8.15;;;2.85;;
6463;SDS011;3265;42.694;23.282;2022-08-03T11:34:11;5.50;;;2.60;;
6463;SDS011;3265;42.694;23.282;2022-08-03T11:39:44;2.53;;;2.33;;
6463;SDS011;3265;42.694;23.282;2022-08-03T11:45:11;4.68;;;2.42;;
6463;SDS011;3265;42.694;23.282;2022-08-03T11:47:39;6.10;;;2.78;;
6463;SDS011;3265;42.694;23.282;2022-08-03T11:50:08;5.60;;;2.70;;
6463;SDS011;3265;42.694;23.282;2022-08-03T11:52:37;2.92;;;2.63;;
6463;SDS011;3265;42.694;23.282;2022-08-03T11:55:09;11.52;;;2.67;;
6463;SDS011;3265;42.694;23.282;2022-08-03T11:57:37;5.50;;;2.40;;
6463;SDS011;3265;42.694;23.282;2022-08-03T12:02:54;4.28;;;2.33;;
6463;SDS011;3265;42.694;23.282;2022-08-03T12:05:31;3.33;;;2.40;;
6463;SDS011;3265;42.694;23.282;2022-08-03T12:08:09;6.05;;;2.95;;
6463;SDS011;3265;42.694;23.282;2022-08-03T12:10:38;3.25;;;2.25;;
6463;SDS011;3265;42.694;23.282;2022-08-03T12:13:06;2.60;;;2.40;;
6463;SDS011;3265;42.694;23.282;2022-08-03T12:15:35;3.13;;;2.55;;
6463;SDS011;3265;42.694;23.282;2022-08-03T12:18:12;3.85;;;2.35;;
6463;SDS011;3265;42.694;23.282;2022-08-03T12:20:40;3.13;;;2.83;;
6463;SDS011;3265;42.694;23.282;2022-08-03T12:23:07;3.65;;;2.88;;
6463;SDS011;3265;42.694;23.282;2022-08-03T12:25:35;4.10;;;2.70;;
6463;SDS011;3265;42.694;23.282;2022-08-03T12:30:49;3.28;;;2.33;;
6463;SDS011;3265;42.694;23.282;2022-08-03T12:33:21;2.47;;;2.28;;
6463;SDS011;3265;42.694;23.282;2022-08-03T12:35:50;4.88;;;2.30;;
6463;SDS011;3265;42.694;23.282;2022-08-03T12:38:28;5.53;;;2.42;;
6463;SDS011;3265;42.694;23.282;2022-08-03T12:40:57;3.30;;;2.47;;
6463;SDS011;3265;42.694;23.282;2022-08-03T12:43:25;3.35;;;2.42;;
6463;SDS011;3265;42.694;23.282;2022-08-03T12:46:07;3.47;;;2.50;;
6463;SDS011;3265;42.694;23.282;2022-08-03T12:48:35;2.85;;;2.65;;
6463;SDS011;3265;42.694;23.282;2022-08-03T12:51:08;4.55;;;2.47;;
6463;SDS011;3265;42.694;23.282;2022-08-03T12:53:35;4.35;;;2.40;;
6463;SDS011;3265;42.694;23.282;2022-08-03T12:56:03;3.40;;;2.25;;
6463;SDS011;3265;42.694;23.282;2022-08-03T12:58:31;5.90;;;2.67;;
6463;SDS011;3265;42.694;23.282;2022-08-03T13:00:59;3.30;;;2.40;;
6463;SDS011;3265;42.694;23.282;2022-08-03T13:03:27;2.65;;;2.33;;
6463;SDS011;3265;42.694;23.282;2022-08-03T13:05:54;5.00;;;2.70;;
6463;SDS011;3265;42.694;23.282;2022-08-03T13:08:22;5.05;;;2.97;;
6463;SDS011;3265;42.694;23.282;2022-08-03T13:10:49;5.15;;;4.13;;
6463;SDS011;3265;42.694;23.282;2022-08-03T13:13:17;7.30;;;4.38;;
6463;SDS011;3265;42.694;23.282;2022-08-03T13:15:44;5.57;;;3.45;;
6463;SDS011;3265;42.694;23.282;2022-08-03T13:18:11;5.10;;;2.67;;
6463;SDS011;3265;42.694;23.282;2022-08-03T13:20:39;4.53;;;2.78;;
6463;SDS011;3265;42.694;23.282;2022-08-03T13:23:08;7.25;;;2.97;;
6463;SDS011;3265;42.694;23.282;2022-08-03T13:25:34;3.10;;;2.80;;
6463;SDS011;3265;42.694;23.282;2022-08-03T13:28:01;4.35;;;2.70;;
6463;SDS011;3265;42.694;23.282;2022-08-03T13:30:30;2.97;;;2.67;;
6463;SDS011;3265;42.694;23.282;2022-08-03T13:32:57;4.35;;;2.65;;
6463;SDS011;3265;42.694;23.282;2022-08-03T13:35:24;3.17;;;2.78;;
6463;SDS011;3265;42.694;23.282;2022-08-03T13:37:52;3.72;;;2.85;;
6463;SDS011;3265;42.694;23.282;2022-08-03T13:40:19;4.00;;;2.90;;
6463;SDS011;3265;42.694;23.282;2022-08-03T13:42:46;8.00;;;2.85;;
6463;SDS011;3265;42.694;23.282;2022-08-03T13:45:13;4.15;;;2.65;;
6463;SDS011;3265;42.694;23.282;2022-08-03T13:47:40;2.95;;;2.65;;
6463;SDS011;3265;42.694;23.282;2022-08-03T13:50:07;7.53;;;2.65;;
6463;SDS011;3265;42.694;23.282;2022-08-03T13:52:34;3.33;;;2.70;;
6463;SDS011;3265;42.694;23.282;2022-08-03T13:55:03;3.85;;;2.75;;
6463;SDS011;3265;42.694;23.282;2022-08-03T13:57:32;4.47;;;2.55;;
6463;SDS011;3265;42.694;23.282;2022-08-03T13:59:59;4.68;;;2.78;;
6463;SDS011;3265;42.694;23.282;2022-08-03T14:02:26;6.57;;;2.70;;
6463;SDS011;3265;42.694;23.282;2022-08-03T14:04:53;3.25;;;2.88;;
6463;SDS011;3265;42.694;23.282;2022-08-03T14:07:20;4.68;;;2.90;;
6463;SDS011;3265;42.694;23.282;2022-08-03T14:09:46;4.13;;;2.70;;
6463;SDS011;3265;42.694;23.282;2022-08-03T14:12:15;3.67;;;2.80;;
6463;SDS011;3265;42.694;23.282;2022-08-03T14:14:42;3.63;;;2.60;;
6463;SDS011;3265;42.694;23.282;2022-08-03T14:17:09;5.47;;;2.70;;
6463;SDS011;3265;42.694;23.282;2022-08-03T14:19:35;5.47;;;2.78;;
6463;SDS011;3265;42.694;23.282;2022-08-03T14:22:02;6.50;;;3.15;;
6463;SDS011;3265;42.694;23.282;2022-08-03T14:24:29;3.60;;;2.95;;
6463;SDS011;3265;42.694;23.282;2022-08-03T14:26:56;5.57;;;3.17;;
6463;SDS011;3265;42.694;23.282;2022-08-03T14:29:24;11.73;;;3.45;;
6463;SDS011;3265;42.694;23.282;2022-08-03T14:31:51;6.22;;;3.38;;
6463;SDS011;3265;42.694;23.282;2022-08-03T14:34:17;3.25;;;2.95;;
6463;SDS011;3265;42.694;23.282;2022-08-03T14:36:44;5.70;;;3.30;;
6463;SDS011;3265;42.694;23.282;2022-08-03T14:39:11;4.32;;;3.05;;
6463;SDS011;3265;42.694;23.282;2022-08-03T14:41:38;4.03;;;3.38;;
6463;SDS011;3265;42.694;23.282;2022-08-03T14:44:05;6.15;;;3.35;;
6463;SDS011;3265;42.694;23.282;2022-08-03T14:46:33;3.45;;;3.13;;
6463;SDS011;3265;42.694;23.282;2022-08-03T14:49:00;4.30;;;3.17;;
6463;SDS011;3265;42.694;23.282;2022-08-03T14:51:27;5.38;;;3.10;;
6463;SDS011;3265;42.694;23.282;2022-08-03T14:53:54;4.43;;;3.00;;
6463;SDS011;3265;42.694;23.282;2022-08-03T14:56:21;5.25;;;3.28;;
6463;SDS011;3265;42.694;23.282;2022-08-03T14:58:47;3.22;;;2.92;;
6463;SDS011;3265;42.694;23.282;2022-08-03T15:01:14;6.30;;;2.97;;
6463;SDS011;3265;42.694;23.282;2022-08-03T15:03:42;3.45;;;2.90;;
6463;SDS011;3265;42.694;23.282;2022-08-03T15:06:11;6.10;;;2.90;;
6463;SDS011;3265;42.694;23.282;2022-08-03T15:08:37;4.68;;;2.70;;
6463;SDS011;3265;42.694;23.282;2022-08-03T15:11:04;3.83;;;2.70;;
6463;SDS011;3265;42.694;23.282;2022-08-03T15:13:31;6.32;;;2.90;;
6463;SDS011;3265;42.694;23.282;2022-08-03T15:15:58;5.03;;;2.80;;
6463;SDS011;3265;42.694;23.282;2022-08-03T15:18:25;5.88;;;3.10;;
6463;SDS011;3265;42.694;23.282;2022-08-03T15:20:53;3.15;;;2.70;;
6463;SDS011;3265;42.694;23.282;2022-08-03T15:23:20;3.47;;;2.80;;
6463;SDS011;3265;42.694;23.282;2022-08-03T15:25:47;7.38;;;2.92;;
6463;SDS011;3265;42.694;23.282;2022-08-03T15:28:14;4.88;;;3.13;;
6463;SDS011;3265;42.694;23.282;2022-08-03T15:30:40;4.88;;;3.00;;
6463;SDS011;3265;42.694;23.282;2022-08-03T15:33:07;4.80;;;3.05;;